Terminal Aerodrome Forecast
Issued by NWS

Home | Current Version | Previous Version | Text Only | Print | Product List | Glossary On
Versions: 1 2 3 4 5 6 7 8 9 10 11 12
000
FTUS42 TJSJ 221700
TAFJPS
TAF
TJPS 221720Z 2218/2318 12010KT P6SM VCSH SCT025 BKN060
     FM222300 06005KT P6SM FEW025
     FM231500 11008KT P6SM VCSH FEW030 BKN070=

USA.gov is the U.S. government's official web portal to all federal, state and local government web resources and services.